sensor_id;sensor_type;location;lat;lon;timestamp;pressure;altitude;pressure_sealevel;temperature;humidity
79411;BME280;69635;50.964;6.948;2023-05-10T00:00:55;100392.28;;;12.68;97.70
79411;BME280;69635;50.964;6.948;2023-05-10T00:03:20;100395.78;;;12.68;97.89
79411;BME280;69635;50.964;6.948;2023-05-10T00:05:46;100383.44;;;12.67;97.81
79411;BME280;69635;50.964;6.948;2023-05-10T00:08:11;100386.06;;;12.69;97.64
79411;BME280;69635;50.964;6.948;2023-05-10T00:10:36;100387.84;;;12.68;98.01
79411;BME280;69635;50.964;6.948;2023-05-10T00:13:02;100384.34;;;12.65;97.90
79411;BME280;69635;50.964;6.948;2023-05-10T00:15:28;100383.38;;;12.70;97.94
79411;BME280;69635;50.964;6.948;2023-05-10T00:17:55;100380.72;;;12.73;97.71
79411;BME280;69635;50.964;6.948;2023-05-10T00:20:21;100386.00;;;12.73;97.76
79411;BME280;69635;50.964;6.948;2023-05-10T00:22:46;100392.16;;;12.77;98.02
79411;BME280;69635;50.964;6.948;2023-05-10T00:25:11;100381.50;;;12.78;97.96
79411;BME280;69635;50.964;6.948;2023-05-10T00:27:37;100380.66;;;12.76;97.86
79411;BME280;69635;50.964;6.948;2023-05-10T00:30:02;100380.69;;;12.75;97.95
79411;BME280;69635;50.964;6.948;2023-05-10T00:32:28;100378.06;;;12.73;98.07
79411;BME280;69635;50.964;6.948;2023-05-10T00:34:53;100380.66;;;12.76;97.73
79411;BME280;69635;50.964;6.948;2023-05-10T00:37:19;100391.28;;;12.75;97.77
79411;BME280;69635;50.964;6.948;2023-05-10T00:39:45;100380.66;;;12.76;97.86
79411;BME280;69635;50.964;6.948;2023-05-10T00:42:10;100374.41;;;12.77;97.89
79411;BME280;69635;50.964;6.948;2023-05-10T00:44:36;100389.50;;;12.75;97.42
79411;BME280;69635;50.964;6.948;2023-05-10T00:47:02;100378.03;;;12.75;97.98
79411;BME280;69635;50.964;6.948;2023-05-10T00:49:28;100378.84;;;12.78;97.67
79411;BME280;69635;50.964;6.948;2023-05-10T00:51:54;100379.72;;;12.77;98.04
79411;BME280;69635;50.964;6.948;2023-05-10T00:54:19;100378.88;;;12.77;97.82
79411;BME280;69635;50.964;6.948;2023-05-10T00:56:45;100383.25;;;12.79;97.72
79411;BME280;69635;50.964;6.948;2023-05-10T00:59:15;100381.50;;;12.78;97.63
79411;BME280;69635;50.964;6.948;2023-05-10T01:01:41;100379.69;;;12.80;97.94
79411;BME280;69635;50.964;6.948;2023-05-10T01:04:07;100386.72;;;12.83;97.88
79411;BME280;69635;50.964;6.948;2023-05-10T01:06:33;100386.75;;;12.81;97.78
79411;BME280;69635;50.964;6.948;2023-05-10T01:08:59;100384.97;;;12.82;98.26
79411;BME280;69635;50.964;6.948;2023-05-10T01:11:24;100384.03;;;12.86;97.69
79411;BME280;69635;50.964;6.948;2023-05-10T01:13:55;100384.03;;;12.86;98.02
79411;BME280;69635;50.964;6.948;2023-05-10T01:16:22;100381.38;;;12.84;97.78
79411;BME280;69635;50.964;6.948;2023-05-10T01:18:48;100373.44;;;12.83;97.63
79411;BME280;69635;50.964;6.948;2023-05-10T01:33:05;100385.69;;;12.93;97.89
79411;BME280;69635;50.964;6.948;2023-05-10T01:35:17;100386.53;;;12.94;97.75
79411;BME280;69635;50.964;6.948;2023-05-10T01:43:11;100393.72;;;12.89;97.41
79411;BME280;69635;50.964;6.948;2023-05-10T01:48:22;100390.25;;;12.83;97.63
79411;BME280;69635;50.964;6.948;2023-05-10T01:50:49;100392.91;;;12.83;97.41
79411;BME280;69635;50.964;6.948;2023-05-10T01:53:18;100397.34;;;12.83;97.40
79411;BME280;69635;50.964;6.948;2023-05-10T01:55:50;100403.59;;;12.79;97.54
79411;BME280;69635;50.964;6.948;2023-05-10T01:58:21;100385.03;;;12.77;97.41
79411;BME280;69635;50.964;6.948;2023-05-10T02:00:49;100394.09;;;12.66;95.80
79411;BME280;69635;50.964;6.948;2023-05-10T02:03:18;100395.94;;;12.59;95.70
79411;BME280;69635;50.964;6.948;2023-05-10T02:05:48;100391.53;;;12.58;96.53
79411;BME280;69635;50.964;6.948;2023-05-10T02:08:14;100397.84;;;12.51;96.37
79411;BME280;69635;50.964;6.948;2023-05-10T02:10:42;100398.75;;;12.49;96.43
79411;BME280;69635;50.964;6.948;2023-05-10T02:13:09;100399.72;;;12.45;96.93
79411;BME280;69635;50.964;6.948;2023-05-10T02:15:37;100410.31;;;12.46;96.90
79411;BME280;69635;50.964;6.948;2023-05-10T02:18:04;100407.81;;;12.36;96.28
79411;BME280;69635;50.964;6.948;2023-05-10T02:20:31;100407.94;;;12.27;96.64
79411;BME280;69635;50.964;6.948;2023-05-10T02:22:57;100414.16;;;12.24;96.66
79411;BME280;69635;50.964;6.948;2023-05-10T02:25:24;100410.63;;;12.25;96.69
79411;BME280;69635;50.964;6.948;2023-05-10T02:27:52;100418.56;;;12.27;97.17
79411;BME280;69635;50.964;6.948;2023-05-10T02:30:19;100414.16;;;12.24;97.18
79411;BME280;69635;50.964;6.948;2023-05-10T02:32:46;100423.75;;;12.33;97.73
79411;BME280;69635;50.964;6.948;2023-05-10T02:35:13;100427.28;;;12.33;97.42
79411;BME280;69635;50.964;6.948;2023-05-10T02:37:40;100428.16;;;12.35;97.61
79411;BME280;69635;50.964;6.948;2023-05-10T02:40:07;100420.19;;;12.35;97.60
79411;BME280;69635;50.964;6.948;2023-05-10T02:42:36;100413.97;;;12.36;97.88
79411;BME280;69635;50.964;6.948;2023-05-10T02:45:06;100416.66;;;12.35;97.29
79411;BME280;69635;50.964;6.948;2023-05-10T02:47:32;100424.59;;;12.38;97.71
79411;BME280;69635;50.964;6.948;2023-05-10T02:49:58;100432.53;;;12.38;97.59
79411;BME280;69635;50.964;6.948;2023-05-10T02:52:25;100428.94;;;12.40;97.70
79411;BME280;69635;50.964;6.948;2023-05-10T02:54:54;100435.19;;;12.36;97.73
79411;BME280;69635;50.964;6.948;2023-05-10T02:57:25;100438.69;;;12.41;97.74
79411;BME280;69635;50.964;6.948;2023-05-10T02:59:51;100434.22;;;12.42;97.84
79411;BME280;69635;50.964;6.948;2023-05-10T03:02:16;100430.75;;;12.38;97.74
79411;BME280;69635;50.964;6.948;2023-05-10T03:04:42;100427.25;;;12.35;97.78
79411;BME280;69635;50.964;6.948;2023-05-10T03:07:08;100416.69;;;12.33;97.52
79411;BME280;69635;50.964;6.948;2023-05-10T03:09:33;100421.06;;;12.36;97.72
79411;BME280;69635;50.964;6.948;2023-05-10T03:15:19;100428.16;;;12.35;97.91
79411;BME280;69635;50.964;6.948;2023-05-10T03:20:25;100434.34;;;12.36;98.10
79411;BME280;69635;50.964;6.948;2023-05-10T03:22:55;100439.50;;;12.43;98.44
79411;BME280;69635;50.964;6.948;2023-05-10T03:25:26;100437.72;;;12.45;98.27
79411;BME280;69635;50.964;6.948;2023-05-10T03:27:51;100441.25;;;12.46;98.24
79411;BME280;69635;50.964;6.948;2023-05-10T03:30:18;100453.59;;;12.50;98.02
79411;BME280;69635;50.964;6.948;2023-05-10T03:32:44;100438.53;;;12.52;98.40
79411;BME280;69635;50.964;6.948;2023-05-10T03:35:11;100444.69;;;12.52;98.17
79411;BME280;69635;50.964;6.948;2023-05-10T03:37:38;100445.59;;;12.51;98.33
79411;BME280;69635;50.964;6.948;2023-05-10T03:40:04;100447.41;;;12.49;98.15
79411;BME280;69635;50.964;6.948;2023-05-10T03:42:30;100448.34;;;12.44;98.36
79411;BME280;69635;50.964;6.948;2023-05-10T03:44:55;100443.16;;;12.38;97.99
79411;BME280;69635;50.964;6.948;2023-05-10T03:47:21;100460.63;;;12.54;98.06
79411;BME280;69635;50.964;6.948;2023-05-10T03:49:46;100458.81;;;12.54;98.13
79411;BME280;69635;50.964;6.948;2023-05-10T03:52:11;100450.00;;;12.52;98.32
79411;BME280;69635;50.964;6.948;2023-05-10T03:54:37;100449.09;;;12.55;98.25
79411;BME280;69635;50.964;6.948;2023-05-10T03:57:02;100456.13;;;12.57;98.28
79411;BME280;69635;50.964;6.948;2023-05-10T03:59:28;100453.50;;;12.54;98.61
79411;BME280;69635;50.964;6.948;2023-05-10T04:01:53;100460.53;;;12.58;98.27
79411;BME280;69635;50.964;6.948;2023-05-10T04:04:18;100463.16;;;12.60;98.45
79411;BME280;69635;50.964;6.948;2023-05-10T04:06:45;100456.06;;;12.62;98.44
79411;BME280;69635;50.964;6.948;2023-05-10T04:09:11;100456.84;;;12.70;98.52
79411;BME280;69635;50.964;6.948;2023-05-10T04:11:36;100456.84;;;12.70;98.48
79411;BME280;69635;50.964;6.948;2023-05-10T04:14:02;100448.84;;;12.71;98.62
79411;BME280;69635;50.964;6.948;2023-05-10T04:16:27;100457.69;;;12.70;98.68
79411;BME280;69635;50.964;6.948;2023-05-10T04:18:53;100455.91;;;12.72;98.46
79411;BME280;69635;50.964;6.948;2023-05-10T04:21:18;100462.00;;;12.77;98.41
79411;BME280;69635;50.964;6.948;2023-05-10T04:23:43;100457.63;;;12.76;98.34
79411;BME280;69635;50.964;6.948;2023-05-10T04:26:09;100450.59;;;12.72;98.36
79411;BME280;69635;50.964;6.948;2023-05-10T04:28:34;100452.34;;;12.75;98.45
79411;BME280;69635;50.964;6.948;2023-05-10T04:31:08;100455.84;;;12.77;98.37
79411;BME280;69635;50.964;6.948;2023-05-10T04:33:34;100456.72;;;12.76;98.57
79411;BME280;69635;50.964;6.948;2023-05-10T04:36:00;100463.78;;;12.78;98.31
79411;BME280;69635;50.964;6.948;2023-05-10T04:38:26;100469.06;;;12.80;98.35
79411;BME280;69635;50.964;6.948;2023-05-10T04:40:52;100466.44;;;12.78;97.85
79411;BME280;69635;50.964;6.948;2023-05-10T04:43:18;100454.94;;;12.78;98.06
79411;BME280;69635;50.964;6.948;2023-05-10T04:45:43;100464.59;;;12.83;97.84
79411;BME280;69635;50.964;6.948;2023-05-10T04:48:08;100463.78;;;12.78;97.63
79411;BME280;69635;50.964;6.948;2023-05-10T04:50:34;100469.97;;;12.77;97.65
79411;BME280;69635;50.964;6.948;2023-05-10T04:52:59;100468.22;;;12.76;97.42
79411;BME280;69635;50.964;6.948;2023-05-10T04:55:25;100474.34;;;12.81;97.92
79411;BME280;69635;50.964;6.948;2023-05-10T04:57:52;100474.38;;;12.80;97.38
79411;BME280;69635;50.964;6.948;2023-05-10T05:00:17;100477.84;;;12.85;97.92
79411;BME280;69635;50.964;6.948;2023-05-10T05:02:44;100486.56;;;12.93;97.70
79411;BME280;69635;50.964;6.948;2023-05-10T05:05:13;100483.91;;;12.92;97.36
79411;BME280;69635;50.964;6.948;2023-05-10T05:07:38;100492.72;;;12.95;97.49
79411;BME280;69635;50.964;6.948;2023-05-10T05:10:06;100484.69;;;13.00;97.66
79411;BME280;69635;50.964;6.948;2023-05-10T05:12:31;100493.53;;;13.00;97.05
79411;BME280;69635;50.964;6.948;2023-05-10T05:14:57;100504.13;;;13.02;97.02
79411;BME280;69635;50.964;6.948;2023-05-10T05:17:22;100509.44;;;13.03;96.68
79411;BME280;69635;50.964;6.948;2023-05-10T05:19:47;100516.44;;;13.09;96.57
79411;BME280;69635;50.964;6.948;2023-05-10T05:22:13;100512.03;;;13.08;95.71
79411;BME280;69635;50.964;6.948;2023-05-10T05:24:38;100512.03;;;13.08;96.32
79411;BME280;69635;50.964;6.948;2023-05-10T05:27:04;100518.31;;;13.04;96.69
79411;BME280;69635;50.964;6.948;2023-05-10T05:29:29;100520.00;;;13.09;96.75
79411;BME280;69635;50.964;6.948;2023-05-10T05:31:55;100515.50;;;13.11;96.25
79411;BME280;69635;50.964;6.948;2023-05-10T05:34:20;100510.31;;;13.05;96.29
79411;BME280;69635;50.964;6.948;2023-05-10T05:36:47;100517.31;;;13.11;96.22
79411;BME280;69635;50.964;6.948;2023-05-10T05:39:12;100530.50;;;13.15;96.71
79411;BME280;69635;50.964;6.948;2023-05-10T05:41:38;100523.41;;;13.16;96.71
79411;BME280;69635;50.964;6.948;2023-05-10T05:44:03;100518.91;;;13.21;96.51
79411;BME280;69635;50.964;6.948;2023-05-10T05:46:28;100525.94;;;13.25;96.85
79411;BME280;69635;50.964;6.948;2023-05-10T05:48:54;100523.25;;;13.26;95.99
79411;BME280;69635;50.964;6.948;2023-05-10T05:51:19;100530.38;;;13.23;95.17
79411;BME280;69635;50.964;6.948;2023-05-10T05:53:45;100522.34;;;13.29;95.48
79411;BME280;69635;50.964;6.948;2023-05-10T05:56:10;100528.44;;;13.34;95.87
79411;BME280;69635;50.964;6.948;2023-05-10T05:58:36;100526.56;;;13.39;95.08
79411;BME280;69635;50.964;6.948;2023-05-10T06:01:01;100524.84;;;13.38;95.74
79411;BME280;69635;50.964;6.948;2023-05-10T06:03:26;100540.91;;;13.30;93.47
79411;BME280;69635;50.964;6.948;2023-05-10T06:05:52;100539.06;;;13.34;94.44
79411;BME280;69635;50.964;6.948;2023-05-10T06:08:17;100546.22;;;13.27;93.70
79411;BME280;69635;50.964;6.948;2023-05-10T06:10:43;100548.00;;;13.28;94.24
79411;BME280;69635;50.964;6.948;2023-05-10T06:13:09;100548.91;;;13.26;93.92
79411;BME280;69635;50.964;6.948;2023-05-10T06:15:35;100561.34;;;13.24;94.07
79411;BME280;69635;50.964;6.948;2023-05-10T06:18:00;100569.34;;;13.22;93.99
79411;BME280;69635;50.964;6.948;2023-05-10T06:20:25;100561.34;;;13.25;95.26
79411;BME280;69635;50.964;6.948;2023-05-10T06:22:51;100559.50;;;13.30;95.14
79411;BME280;69635;50.964;6.948;2023-05-10T06:25:16;100561.38;;;13.22;93.38
79411;BME280;69635;50.964;6.948;2023-05-10T06:27:43;100558.75;;;13.21;94.83
79411;BME280;69635;50.964;6.948;2023-05-10T06:30:09;100571.16;;;13.22;95.30
79411;BME280;69635;50.964;6.948;2023-05-10T06:32:35;100564.00;;;13.25;94.96
79411;BME280;69635;50.964;6.948;2023-05-10T06:35:00;100577.28;;;13.25;94.92
79411;BME280;69635;50.964;6.948;2023-05-10T06:37:26;100573.75;;;13.25;94.68
79411;BME280;69635;50.964;6.948;2023-05-10T06:39:51;100567.59;;;13.21;95.32
79411;BME280;69635;50.964;6.948;2023-05-10T06:42:16;100580.84;;;13.23;94.47
79411;BME280;69635;50.964;6.948;2023-05-10T06:44:42;100579.94;;;13.24;94.37
79411;BME280;69635;50.964;6.948;2023-05-10T06:47:08;100587.91;;;13.25;94.71
79411;BME280;69635;50.964;6.948;2023-05-10T06:49:34;100591.56;;;13.18;94.14
79411;BME280;69635;50.964;6.948;2023-05-10T06:51:59;100588.97;;;13.12;94.45
79411;BME280;69635;50.964;6.948;2023-05-10T06:54:24;100586.38;;;13.08;93.95
79411;BME280;69635;50.964;6.948;2023-05-10T06:56:50;100597.06;;;13.02;93.37
79411;BME280;69635;50.964;6.948;2023-05-10T06:59:15;100589.09;;;13.02;94.20
79411;BME280;69635;50.964;6.948;2023-05-10T07:01:42;100600.66;;;13.02;94.95
79411;BME280;69635;50.964;6.948;2023-05-10T07:04:08;100595.31;;;12.99;93.68
79411;BME280;69635;50.964;6.948;2023-05-10T07:06:33;100598.88;;;12.98;94.16
79411;BME280;69635;50.964;6.948;2023-05-10T07:08:59;100598.84;;;13.03;95.47
79411;BME280;69635;50.964;6.948;2023-05-10T07:11:26;100602.22;;;13.15;95.30
79411;BME280;69635;50.964;6.948;2023-05-10T07:13:51;100596.00;;;13.16;94.28
79411;BME280;69635;50.964;6.948;2023-05-10T07:16:17;100599.44;;;13.23;94.68
79411;BME280;69635;50.964;6.948;2023-05-10T07:18:42;100597.53;;;13.31;94.35
79411;BME280;69635;50.964;6.948;2023-05-10T07:21:08;100592.16;;;13.37;93.85
79411;BME280;69635;50.964;6.948;2023-05-10T07:23:33;100590.06;;;13.57;94.85
79411;BME280;69635;50.964;6.948;2023-05-10T07:25:59;100602.34;;;13.64;94.79
79411;BME280;69635;50.964;6.948;2023-05-10T07:28:24;100606.75;;;13.66;95.09
79411;BME280;69635;50.964;6.948;2023-05-10T07:30:51;100610.28;;;13.65;94.45
79411;BME280;69635;50.964;6.948;2023-05-10T07:33:16;100606.56;;;13.77;94.86
79411;BME280;69635;50.964;6.948;2023-05-10T07:35:42;100605.72;;;13.75;94.94
79411;BME280;69635;50.964;6.948;2023-05-10T07:38:08;100600.38;;;13.76;95.11
79411;BME280;69635;50.964;6.948;2023-05-10T07:40:33;100601.34;;;13.71;94.52
79411;BME280;69635;50.964;6.948;2023-05-10T07:42:59;100610.16;;;13.73;94.01
79411;BME280;69635;50.964;6.948;2023-05-10T07:45:28;100610.22;;;13.68;94.14
79411;BME280;69635;50.964;6.948;2023-05-10T07:47:53;100604.94;;;13.67;94.36
79411;BME280;69635;50.964;6.948;2023-05-10T07:50:19;100616.50;;;13.66;93.93
79411;BME280;69635;50.964;6.948;2023-05-10T07:52:46;100612.06;;;13.65;94.00
79411;BME280;69635;50.964;6.948;2023-05-10T07:55:11;100616.59;;;13.58;93.32
79411;BME280;69635;50.964;6.948;2023-05-10T07:57:37;100613.91;;;13.60;94.82
79411;BME280;69635;50.964;6.948;2023-05-10T08:00:03;100616.53;;;13.61;94.34
79411;BME280;69635;50.964;6.948;2023-05-10T08:02:32;100609.44;;;13.63;94.09
79411;BME280;69635;50.964;6.948;2023-05-10T08:04:57;100624.34;;;13.72;94.85
79411;BME280;69635;50.964;6.948;2023-05-10T08:07:24;100631.44;;;13.73;94.85
79411;BME280;69635;50.964;6.948;2023-05-10T08:09:49;100623.41;;;13.76;94.18
79411;BME280;69635;50.964;6.948;2023-05-10T08:12:14;100622.53;;;13.77;93.95
79411;BME280;69635;50.964;6.948;2023-05-10T08:14:40;100630.44;;;13.80;94.42
79411;BME280;69635;50.964;6.948;2023-05-10T08:17:05;100627.50;;;13.97;94.73
79411;BME280;69635;50.964;6.948;2023-05-10T08:19:31;100627.59;;;13.91;94.01
79411;BME280;69635;50.964;6.948;2023-05-10T08:21:56;100638.06;;;14.00;94.46
79411;BME280;69635;50.964;6.948;2023-05-10T08:24:22;100636.50;;;13.86;92.53
79411;BME280;69635;50.964;6.948;2023-05-10T08:26:48;100637.28;;;13.95;94.08
79411;BME280;69635;50.964;6.948;2023-05-10T08:29:14;100632.75;;;14.00;94.35
79411;BME280;69635;50.964;6.948;2023-05-10T08:31:39;100635.31;;;14.04;94.04
79411;BME280;69635;50.964;6.948;2023-05-10T08:34:04;100641.41;;;14.12;93.83
79411;BME280;69635;50.964;6.948;2023-05-10T08:36:30;100628.81;;;14.22;93.96
79411;BME280;69635;50.964;6.948;2023-05-10T08:38:57;100638.69;;;14.15;93.69
79411;BME280;69635;50.964;6.948;2023-05-10T08:41:23;100640.47;;;14.15;94.13
79411;BME280;69635;50.964;6.948;2023-05-10T08:43:51;100645.00;;;14.08;93.63
79411;BME280;69635;50.964;6.948;2023-05-10T08:46:19;100654.06;;;13.98;92.78
79411;BME280;69635;50.964;6.948;2023-05-10T08:48:45;100642.78;;;13.84;92.87
79411;BME280;69635;50.964;6.948;2023-05-10T08:51:18;100662.28;;;13.83;94.60
79411;BME280;69635;50.964;6.948;2023-05-10T08:53:45;100652.59;;;13.79;94.06
79411;BME280;69635;50.964;6.948;2023-05-10T08:56:10;100662.41;;;13.77;93.79
79411;BME280;69635;50.964;6.948;2023-05-10T08:58:37;100657.91;;;13.80;92.82
79411;BME280;69635;50.964;6.948;2023-05-10T09:01:03;100670.28;;;13.81;92.17
79411;BME280;69635;50.964;6.948;2023-05-10T09:03:29;100662.59;;;14.17;95.11
79411;BME280;69635;50.964;6.948;2023-05-10T09:05:55;100660.53;;;14.35;93.16
79411;BME280;69635;50.964;6.948;2023-05-10T09:08:24;100655.09;;;14.41;91.35
79411;BME280;69635;50.964;6.948;2023-05-10T09:10:54;100668.03;;;14.61;90.68
79411;BME280;69635;50.964;6.948;2023-05-10T09:13:21;100667.00;;;14.68;89.99
79411;BME280;69635;50.964;6.948;2023-05-10T09:15:47;100668.00;;;14.62;90.38
79411;BME280;69635;50.964;6.948;2023-05-10T09:18:13;100668.13;;;14.55;88.56
79411;BME280;69635;50.964;6.948;2023-05-10T09:20:38;100665.38;;;14.59;92.36
79411;BME280;69635;50.964;6.948;2023-05-10T09:23:04;100670.09;;;14.45;91.33
79411;BME280;69635;50.964;6.948;2023-05-10T09:25:30;100671.88;;;14.43;91.91
79411;BME280;69635;50.964;6.948;2023-05-10T09:27:58;100676.22;;;14.50;92.44
79411;BME280;69635;50.964;6.948;2023-05-10T09:30:24;100677.41;;;14.33;89.59
79411;BME280;69635;50.964;6.948;2023-05-10T09:32:51;100695.53;;;14.10;89.22
79411;BME280;69635;50.964;6.948;2023-05-10T09:35:22;100697.72;;;13.85;90.57
79411;BME280;69635;50.964;6.948;2023-05-10T09:37:50;100699.50;;;13.83;90.93
79411;BME280;69635;50.964;6.948;2023-05-10T09:40:18;100696.59;;;14.00;91.96
79411;BME280;69635;50.964;6.948;2023-05-10T09:43:10;100691.53;;;14.38;90.70
79411;BME280;69635;50.964;6.948;2023-05-10T09:45:36;100694.06;;;14.44;88.26
79411;BME280;69635;50.964;6.948;2023-05-10T09:48:02;100701.56;;;14.71;90.11
79411;BME280;69635;50.964;6.948;2023-05-10T09:50:29;100699.81;;;14.70;89.15
79411;BME280;69635;50.964;6.948;2023-05-10T09:52:59;100703.38;;;14.69;88.84
79411;BME280;69635;50.964;6.948;2023-05-10T09:55:39;100700.03;;;14.56;88.70
79411;BME280;69635;50.964;6.948;2023-05-10T09:58:05;100700.03;;;14.56;90.03
79411;BME280;69635;50.964;6.948;2023-05-10T10:00:45;100693.66;;;14.66;90.21
79411;BME280;69635;50.964;6.948;2023-05-10T10:03:17;100700.63;;;14.73;88.55
79411;BME280;69635;50.964;6.948;2023-05-10T10:05:43;100694.59;;;14.64;87.05
79411;BME280;69635;50.964;6.948;2023-05-10T10:08:09;100707.72;;;14.73;87.20
79411;BME280;69635;50.964;6.948;2023-05-10T10:10:35;100709.81;;;14.57;83.24
79411;BME280;69635;50.964;6.948;2023-05-10T10:13:01;100707.53;;;14.83;84.37
79411;BME280;69635;50.964;6.948;2023-05-10T10:15:27;100710.72;;;15.01;84.22
79411;BME280;69635;50.964;6.948;2023-05-10T10:17:53;100709.38;;;15.23;84.60
79411;BME280;69635;50.964;6.948;2023-05-10T10:20:21;100712.56;;;15.41;84.84
79411;BME280;69635;50.964;6.948;2023-05-10T10:22:47;100713.88;;;15.62;81.11
79411;BME280;69635;50.964;6.948;2023-05-10T10:25:17;100709.50;;;15.58;80.40
79411;BME280;69635;50.964;6.948;2023-05-10T10:35:50;100706.69;;;15.65;82.40
79411;BME280;69635;50.964;6.948;2023-05-10T10:38:17;100702.91;;;15.74;79.93
79411;BME280;69635;50.964;6.948;2023-05-10T10:40:42;100706.63;;;15.67;81.04
79411;BME280;69635;50.964;6.948;2023-05-10T10:46:16;100707.88;;;15.90;80.54
79411;BME280;69635;50.964;6.948;2023-05-10T10:49:08;100702.63;;;15.87;78.18
79411;BME280;69635;50.964;6.948;2023-05-10T10:51:37;100712.13;;;15.98;76.26
79411;BME280;69635;50.964;6.948;2023-05-10T10:54:12;100707.16;;;15.84;75.49
79411;BME280;69635;50.964;6.948;2023-05-10T10:56:37;100705.50;;;15.78;79.19
79411;BME280;69635;50.964;6.948;2023-05-10T10:59:03;100703.88;;;15.71;75.80
79411;BME280;69635;50.964;6.948;2023-05-10T11:01:34;100708.75;;;15.53;77.51
79411;BME280;69635;50.964;6.948;2023-05-10T11:06:29;100709.00;;;15.80;77.78
79411;BME280;69635;50.964;6.948;2023-05-10T11:08:57;100717.50;;;15.96;77.06
79411;BME280;69635;50.964;6.948;2023-05-10T11:11:22;100717.97;;;16.13;78.65
79411;BME280;69635;50.964;6.948;2023-05-10T11:13:48;100717.91;;;16.16;77.67
79411;BME280;69635;50.964;6.948;2023-05-10T11:16:24;100715.88;;;16.26;78.44
79411;BME280;69635;50.964;6.948;2023-05-10T11:18:57;100726.09;;;16.44;76.96
79411;BME280;69635;50.964;6.948;2023-05-10T11:21:23;100725.16;;;16.46;78.10
79411;BME280;69635;50.964;6.948;2023-05-10T11:23:52;100732.03;;;16.56;77.16
79411;BME280;69635;50.964;6.948;2023-05-10T11:26:21;100735.81;;;16.46;75.25
79411;BME280;69635;50.964;6.948;2023-05-10T11:28:48;100739.19;;;16.54;74.94
79411;BME280;69635;50.964;6.948;2023-05-10T11:31:15;100741.91;;;16.53;75.21
79411;BME280;69635;50.964;6.948;2023-05-10T11:39:05;100730.75;;;16.71;73.68
79411;BME280;69635;50.964;6.948;2023-05-10T11:41:31;100731.13;;;16.89;73.79
79411;BME280;69635;50.964;6.948;2023-05-10T11:43:57;100744.25;;;16.98;71.16
79411;BME280;69635;50.964;6.948;2023-05-10T11:46:24;100741.81;;;17.22;71.99
79411;BME280;69635;50.964;6.948;2023-05-10T11:49:00;100743.28;;;17.32;71.89
79411;BME280;69635;50.964;6.948;2023-05-10T11:51:26;100742.44;;;17.30;69.62
79411;BME280;69635;50.964;6.948;2023-05-10T11:53:53;100748.22;;;17.45;69.59
79411;BME280;69635;50.964;6.948;2023-05-10T11:56:18;100742.19;;;17.39;70.87
79411;BME280;69635;50.964;6.948;2023-05-10T11:58:44;100736.16;;;17.32;68.73
79411;BME280;69635;50.964;6.948;2023-05-10T12:01:10;100744.00;;;17.37;66.35
79411;BME280;69635;50.964;6.948;2023-05-10T12:03:36;100741.84;;;17.20;66.02
79411;BME280;69635;50.964;6.948;2023-05-10T12:06:03;100742.75;;;17.19;65.59
79411;BME280;69635;50.964;6.948;2023-05-10T12:08:30;100736.78;;;17.11;65.62
79411;BME280;69635;50.964;6.948;2023-05-10T12:11:07;100740.22;;;17.15;65.59
79411;BME280;69635;50.964;6.948;2023-05-10T12:13:40;100743.97;;;17.38;68.54
79411;BME280;69635;50.964;6.948;2023-05-10T12:16:13;100753.88;;;17.65;66.13
79411;BME280;69635;50.964;6.948;2023-05-10T12:18:40;100743.56;;;17.53;65.04
79411;BME280;69635;50.964;6.948;2023-05-10T12:21:06;100749.19;;;17.73;64.57
79411;BME280;69635;50.964;6.948;2023-05-10T12:23:32;100739.63;;;17.65;64.92
79411;BME280;69635;50.964;6.948;2023-05-10T12:26:03;100743.13;;;17.67;63.84
79411;BME280;69635;50.964;6.948;2023-05-10T12:28:33;100744.56;;;17.49;64.64
79411;BME280;69635;50.964;6.948;2023-05-10T12:31:02;100743.84;;;17.43;64.78
79411;BME280;69635;50.964;6.948;2023-05-10T12:33:35;100741.00;;;17.50;64.79
79411;BME280;69635;50.964;6.948;2023-05-10T12:36:04;100747.84;;;17.59;66.05
79411;BME280;69635;50.964;6.948;2023-05-10T12:38:38;100750.75;;;17.51;65.38
79411;BME280;69635;50.964;6.948;2023-05-10T12:41:07;100758.59;;;17.57;65.67
79411;BME280;69635;50.964;6.948;2023-05-10T12:43:34;100749.78;;;17.54;65.45
79411;BME280;69635;50.964;6.948;2023-05-10T12:46:10;100753.72;;;17.71;64.85
79411;BME280;69635;50.964;6.948;2023-05-10T12:48:37;100759.97;;;17.70;62.89
79411;BME280;69635;50.964;6.948;2023-05-10T12:51:04;100763.19;;;17.81;64.93
79411;BME280;69635;50.964;6.948;2023-05-10T12:53:30;100761.34;;;17.56;63.33
79411;BME280;69635;50.964;6.948;2023-05-10T12:55:56;100767.72;;;17.79;64.84
79411;BME280;69635;50.964;6.948;2023-05-10T12:58:21;100762.56;;;18.01;64.57
79411;BME280;69635;50.964;6.948;2023-05-10T13:00:47;100766.09;;;18.03;62.98
79411;BME280;69635;50.964;6.948;2023-05-10T13:03:12;100763.50;;;18.00;59.63
79411;BME280;69635;50.964;6.948;2023-05-10T13:05:38;100769.78;;;17.99;63.93
79411;BME280;69635;50.964;6.948;2023-05-10T13:08:04;100772.94;;;18.12;62.40
79411;BME280;69635;50.964;6.948;2023-05-10T13:10:30;100764.41;;;18.00;63.99
79411;BME280;69635;50.964;6.948;2023-05-10T13:12:56;100759.75;;;17.78;62.10
79411;BME280;69635;50.964;6.948;2023-05-10T13:15:22;100764.25;;;17.76;60.00
79411;BME280;69635;50.964;6.948;2023-05-10T13:17:47;100759.34;;;17.62;64.16
79411;BME280;69635;50.964;6.948;2023-05-10T13:20:13;100751.00;;;17.73;63.17
79411;BME280;69635;50.964;6.948;2023-05-10T13:22:38;100760.97;;;17.95;63.44
79411;BME280;69635;50.964;6.948;2023-05-10T13:25:04;100759.06;;;17.71;60.70
79411;BME280;69635;50.964;6.948;2023-05-10T13:27:29;100761.75;;;17.99;61.03
79411;BME280;69635;50.964;6.948;2023-05-10T13:29:55;100760.38;;;18.14;62.44
79411;BME280;69635;50.964;6.948;2023-05-10T13:32:20;100751.16;;;18.22;63.13